Time;durP1;ratioP1;P1;durP2;ratioP2;P2;SDS_P1;SDS_P2;PMS_P1;PMS_P2;Temp;Humidity;BMP_temperature;BMP_pressure;BME280_temperature;BME280_humidity;BME280_pressure;Samples;Min_cycle;Max_cycle;Signal;HPM_P1;HPM_P2
2021/03/08 00:00:39;;;;;;;52.00;32.05;;;;;;;2.59;56.00;94807.69;5113479;23;20031;-71
2021/03/08 00:02:41;;;;;;;50.30;30.80;;;;;;;2.60;56.42;94804.16;5087658;23;20030;-71
2021/03/08 00:04:42;;;;;;;51.90;31.35;;;;;;;2.61;56.23;94798.06;5114619;23;20025;-72
2021/03/08 00:06:44;;;;;;;49.10;30.17;;;;;;;2.60;56.25;94804.16;5114028;23;20032;-69
2021/03/08 00:08:45;;;;;;;52.63;31.65;;;;;;;2.54;56.35;94794.22;5115118;23;20017;-70
2021/03/08 00:10:46;;;;;;;49.70;31.90;;;;;;;2.23;57.04;94804.94;5114032;23;20108;-69
2021/03/08 00:12:48;;;;;;;51.40;31.25;;;;;;;2.24;57.01;94795.47;5115277;23;20021;-72
2021/03/08 00:14:49;;;;;;;51.90;31.35;;;;;;;2.31;57.49;94798.44;5116905;23;20021;-84
2021/03/08 00:16:50;;;;;;;53.92;32.10;;;;;;;2.33;57.38;94794.81;5114949;23;20033;-84
2021/03/08 00:18:52;;;;;;;50.13;31.17;;;;;;;2.36;57.02;94793.78;5117469;23;20025;-84
2021/03/08 00:20:53;;;;;;;52.53;30.95;;;;;;;2.24;57.41;94790.28;5116961;23;20024;-83
2021/03/08 00:22:56;;;;;;;58.47;32.35;;;;;;;2.25;57.53;94787.56;5067209;23;20049;-84
2021/03/08 00:24:58;;;;;;;48.83;30.10;;;;;;;2.27;56.98;94781.50;5117696;23;20029;-85
2021/03/08 00:26:59;;;;;;;52.13;30.58;;;;;;;2.33;57.00;94781.06;5116637;23;20025;-85
2021/03/08 00:29:00;;;;;;;45.60;29.02;;;;;;;2.38;56.74;94779.78;5091285;23;20100;-83
2021/03/08 00:31:01;;;;;;;47.58;29.73;;;;;;;2.44;56.63;94778.56;5115467;23;20020;-84
2021/03/08 00:33:03;;;;;;;51.60;31.35;;;;;;;2.39;57.08;94775.47;5117126;23;20044;-86
2021/03/08 00:35:06;;;;;;;50.30;31.10;;;;;;;2.39;57.03;94778.06;5115722;23;20025;-86
2021/03/08 00:37:16;;;;;;;51.13;31.20;;;;;;;2.45;56.93;94772.44;5097844;23;20029;-83
2021/03/08 00:39:17;;;;;;;47.53;29.70;;;;;;;2.46;57.53;94774.91;5119057;23;20031;-84
2021/03/08 00:41:18;;;;;;;50.25;30.83;;;;;;;2.41;57.19;94771.00;5116773;23;20387;-85
2021/03/08 00:43:19;;;;;;;49.75;31.00;;;;;;;2.15;57.37;94777.97;5117533;23;20024;-85
2021/03/08 00:45:22;;;;;;;50.17;30.67;;;;;;;1.74;58.77;94776.47;5117066;23;20485;-85
2021/03/08 00:47:24;;;;;;;51.27;30.97;;;;;;;1.77;59.03;94773.69;5116610;23;20021;-83
2021/03/08 00:49:25;;;;;;;51.63;31.33;;;;;;;1.36;59.88;94777.28;5090864;23;20479;-83
2021/03/08 00:51:27;;;;;;;49.72;30.80;;;;;;;1.12;61.32;94774.53;5118403;23;20097;-82
2021/03/08 00:53:28;;;;;;;55.78;32.55;;;;;;;1.07;61.53;94772.28;5091462;23;20364;-82
2021/03/08 00:55:29;;;;;;;58.03;33.47;;;;;;;1.10;61.53;94764.34;5116703;23;20458;-84
2021/03/08 00:57:30;;;;;;;56.70;32.38;;;;;;;1.23;61.43;94762.63;5117741;23;20025;-84
2021/03/08 00:59:32;;;;;;;57.17;32.53;;;;;;;1.40;60.69;94771.81;5116141;23;20021;-82
2021/03/08 01:01:33;;;;;;;51.72;32.30;;;;;;;1.49;60.29;94765.22;5090779;23;20029;-84
2021/03/08 01:03:34;;;;;;;52.25;32.15;;;;;;;1.62;59.84;94760.88;5091529;23;20026;-84
2021/03/08 01:05:36;;;;;;;53.33;32.80;;;;;;;1.78;59.63;94754.69;5118744;23;20025;-83
2021/03/08 01:07:37;;;;;;;52.97;32.22;;;;;;;1.77;59.76;94753.84;5117601;23;20232;-84
2021/03/08 01:09:38;;;;;;;56.83;32.28;;;;;;;1.90;59.00;94751.25;5117513;23;20028;-84
2021/03/08 01:11:40;;;;;;;49.25;31.88;;;;;;;1.96;58.52;94750.84;5091667;23;20495;-84
2021/03/08 01:13:41;;;;;;;53.90;32.17;;;;;;;1.95;58.77;94743.19;5117321;23;20028;-84
2021/03/08 01:15:42;;;;;;;50.60;31.08;;;;;;;1.82;58.86;94731.09;5117656;23;20029;-85
2021/03/08 01:17:43;;;;;;;52.08;29.77;;;;;;;1.64;59.53;94740.13;5116487;23;20410;-84
2021/03/08 01:19:44;;;;;;;53.72;32.63;;;;;;;1.48;60.07;94739.50;5114545;23;20097;-70
2021/03/08 01:21:46;;;;;;;53.60;33.58;;;;;;;1.42;60.37;94739.00;5115268;23;20394;-69
2021/03/08 01:23:47;;;;;;;52.53;33.10;;;;;;;1.50;60.49;94728.13;5115069;23;20025;-70
2021/03/08 01:25:48;;;;;;;56.38;32.50;;;;;;;1.37;60.48;94732.47;5114669;23;20021;-71
2021/03/08 01:27:49;;;;;;;57.03;33.45;;;;;;;1.14;61.27;94734.00;5113200;23;20141;-70
2021/03/08 01:29:50;;;;;;;51.40;32.85;;;;;;;1.08;61.46;94737.81;5087424;23;20027;-70
2021/03/08 01:31:52;;;;;;;53.70;33.25;;;;;;;0.99;62.46;94728.09;5112944;23;20048;-70
2021/03/08 01:33:53;;;;;;;57.50;33.72;;;;;;;1.18;61.22;94730.28;5116297;23;20483;-83
2021/03/08 01:35:54;;;;;;;54.55;33.70;;;;;;;1.36;60.98;94726.50;5117151;23;20095;-84
2021/03/08 01:37:56;;;;;;;50.70;31.63;;;;;;;1.54;60.03;94718.44;5118776;23;20025;-84
2021/03/08 01:39:57;;;;;;;54.03;31.85;;;;;;;1.69;59.52;94721.72;5091311;23;20315;-84
2021/03/08 01:41:58;;;;;;;55.97;32.10;;;;;;;1.82;59.45;94719.97;5091033;23;20057;-84
2021/03/08 01:44:00;;;;;;;51.05;32.05;;;;;;;1.89;59.00;94721.19;5116695;23;20029;-83
2021/03/08 01:46:01;;;;;;;54.22;32.80;;;;;;;1.95;58.98;94709.59;5114824;23;20025;-85
2021/03/08 01:48:03;;;;;;;52.53;33.10;;;;;;;1.99;58.67;94716.22;5091317;23;20027;-84
2021/03/08 01:50:14;;;;;;;61.22;32.60;;;;;;;2.07;58.28;94713.09;5066398;23;20150;-84
2021/03/08 01:52:16;;;;;;;52.70;31.65;;;;;;;2.09;58.37;94700.88;5089672;23;20022;-70
2021/03/08 01:54:17;;;;;;;54.85;32.17;;;;;;;2.14;57.97;94707.38;5114004;23;20461;-71
2021/03/08 01:56:18;;;;;;;50.17;30.58;;;;;;;2.18;57.85;94700.25;5086500;23;20096;-69
2021/03/08 01:58:20;;;;;;;48.95;29.73;;;;;;;2.19;58.20;94697.53;5115062;23;20474;-71
2021/03/08 02:00:23;;;;;;;45.75;29.20;;;;;;;2.21;57.81;94694.84;5112627;23;20033;-71
2021/03/08 02:02:24;;;;;;;47.72;29.23;;;;;;;2.20;58.10;94690.63;5114778;23;20431;-70
2021/03/08 02:04:27;;;;;;;47.67;27.92;;;;;;;2.20;57.92;94698.38;5089269;23;20582;-70
2021/03/08 02:06:28;;;;;;;43.00;27.55;;;;;;;2.21;57.88;94692.28;5064889;23;20503;-69
2021/03/08 02:08:29;;;;;;;48.90;29.88;;;;;;;2.21;58.04;94689.69;5117103;23;20376;-70
2021/03/08 02:10:34;;;;;;;47.63;30.58;;;;;;;2.21;58.00;94692.28;5089443;23;20076;-70
2021/03/08 02:12:47;;;;;;;46.55;28.90;;;;;;;2.19;58.33;94694.94;5116286;23;20021;-70
2021/03/08 02:15:12;;;;;;;51.15;29.50;;;;;;;2.26;57.87;94697.97;5115179;23;20024;-70
2021/03/08 02:17:17;;;;;;;44.13;28.67;;;;;;;2.26;57.85;94692.78;5113955;23;20095;-70
2021/03/08 02:19:52;;;;;;;49.58;29.65;;;;;;;2.30;57.79;94690.78;5116359;23;20103;-70
2021/03/08 02:22:18;;;;;;;46.78;29.15;;;;;;;2.31;57.73;94682.13;5116354;23;20029;-72
2021/03/08 02:24:25;;;;;;;45.67;28.45;;;;;;;2.35;57.70;94684.38;5115899;23;20028;-71
2021/03/08 02:26:50;;;;;;;41.78;27.52;;;;;;;2.35;57.54;94689.53;5114472;23;20156;-70
2021/03/08 02:29:28;;;;;;;44.72;28.73;;;;;;;2.33;57.81;94683.66;5090331;23;20025;-70
2021/03/08 02:31:48;;;;;;;42.83;27.05;;;;;;;2.24;57.95;94679.16;5112713;23;20072;-72
2021/03/08 02:34:02;;;;;;;43.83;27.55;;;;;;;2.22;58.17;94676.66;5114317;23;20029;-70
2021/03/08 02:36:07;;;;;;;46.13;28.00;;;;;;;2.20;58.30;94678.53;5090805;23;20440;-69
2021/03/08 02:38:12;;;;;;;43.50;26.90;;;;;;;2.21;58.05;94676.75;5089033;23;20484;-71
2021/03/08 02:40:18;;;;;;;40.67;26.05;;;;;;;2.23;57.94;94673.13;5088878;23;20022;-70
2021/03/08 02:42:25;;;;;;;42.42;26.23;;;;;;;2.27;58.16;94672.94;5116078;23;20028;-70
2021/03/08 02:44:33;;;;;;;45.50;27.85;;;;;;;2.28;58.18;94672.81;5089085;23;20041;-71
2021/03/08 02:46:36;;;;;;;46.03;29.13;;;;;;;2.24;58.44;94674.78;5112809;23;20034;-70
2021/03/08 02:48:41;;;;;;;45.53;27.50;;;;;;;2.21;58.34;94666.41;5090009;23;20021;-70
2021/03/08 02:50:42;;;;;;;;;;;;;;;2.23;58.18;94678.28;5090188;23;20060;-71
2021/03/08 02:52:59;;;;;;;46.40;26.52;;;;;;;2.27;58.04;94670.34;5115774;23;20294;-70
2021/03/08 02:55:00;;;;;;;45.33;27.30;;;;;;;2.26;58.35;94669.53;5114419;23;20021;-70
2021/03/08 02:57:04;;;;;;;46.05;26.77;;;;;;;2.29;58.26;94665.88;5088845;23;20096;-71
2021/03/08 02:59:05;;;;;;;;;;;;;;;2.29;57.86;94674.47;5090133;23;20024;-70
2021/03/08 03:01:07;;;;;;;43.00;25.77;;;;;;;2.31;58.05;94669.19;5111872;23;19920;-70
2021/03/08 03:03:09;;;;;;;44.50;27.48;;;;;;;2.32;58.21;94663.88;5088100;23;20036;-70
2021/03/08 03:05:12;;;;;;;43.08;26.40;;;;;;;2.31;57.97;94671.78;5089445;23;20072;-69
2021/03/08 03:07:16;;;;;;;44.88;28.27;;;;;;;2.28;58.32;94664.22;5088457;23;20029;-70
2021/03/08 03:09:18;;;;;;;45.85;26.75;;;;;;;2.23;58.36;94664.56;5089264;23;20403;-70
2021/03/08 03:11:20;;;;;;;41.00;26.48;;;;;;;2.21;58.49;94663.84;5114953;23;20025;-74
2021/03/08 03:13:23;;;;;;;48.50;28.20;;;;;;;2.22;58.45;94655.16;5063177;23;20484;-71
2021/03/08 03:15:24;;;;;;;40.42;26.98;;;;;;;2.26;58.82;94661.78;5088036;23;20033;-69
2021/03/08 03:17:26;;;;;;;43.50;27.60;;;;;;;2.26;58.50;94656.59;5062714;23;20022;-70
2021/03/08 03:19:28;;;;;;;44.78;27.85;;;;;;;2.28;58.31;94661.63;5088847;23;20056;-70
2021/03/08 03:21:33;;;;;;;44.58;27.45;;;;;;;2.16;58.65;94659.00;5088930;23;20021;-70
2021/03/08 03:23:37;;;;;;;44.88;27.38;;;;;;;2.09;58.63;94654.38;5100896;23;20071;-83
2021/03/08 03:25:39;;;;;;;42.10;27.75;;;;;;;2.15;58.74;94665.13;5100763;23;20031;-82
2021/03/08 03:27:40;;;;;;;46.83;27.67;;;;;;;2.09;58.88;94664.69;5092963;23;20021;-84
2021/03/08 03:29:41;;;;;;;44.28;28.65;;;;;;;2.10;59.25;94654.25;5092473;23;20021;-84
2021/03/08 03:31:43;;;;;;;46.20;27.48;;;;;;;2.10;58.99;94658.63;5118143;23;20429;-85
2021/03/08 03:33:45;;;;;;;44.30;27.95;;;;;;;2.10;58.85;94658.63;5109023;23;20029;-86
2021/03/08 03:35:47;;;;;;;45.83;27.63;;;;;;;1.95;59.55;94657.94;5117837;23;20047;-84
2021/03/08 03:37:49;;;;;;;45.47;28.05;;;;;;;1.86;59.61;94662.00;5117963;23;20072;-85
2021/03/08 03:39:51;;;;;;;43.78;27.23;;;;;;;1.75;59.61;94651.59;5117001;23;20459;-84
2021/03/08 03:41:54;;;;;;;47.80;28.33;;;;;;;1.57;60.95;94645.91;5143745;23;20027;-83
2021/03/08 03:43:55;;;;;;;45.17;28.15;;;;;;;1.60;60.64;94646.53;5117143;23;20025;-82
2021/03/08 03:46:00;;;;;;;45.05;28.17;;;;;;;1.68;60.61;94646.03;5118350;23;20044;-83
2021/03/08 03:48:01;;;;;;;42.78;28.65;;;;;;;1.74;60.57;94649.91;5121052;23;20033;-84
2021/03/08 03:50:03;;;;;;;43.13;29.38;;;;;;;1.76;60.72;94648.88;5144100;23;20016;-84
2021/03/08 03:52:05;;;;;;;52.15;29.60;;;;;;;1.82;59.93;94653.63;5144691;23;20350;-85
2021/03/08 03:54:07;;;;;;;50.53;29.27;;;;;;;1.80;59.96;94657.25;5142902;23;20024;-84
2021/03/08 03:56:09;;;;;;;48.05;30.05;;;;;;;1.82;60.43;94657.97;5117042;23;20024;-84
2021/03/08 03:58:20;;;;;;;46.67;27.55;;;;;;;1.82;60.27;94660.56;5148164;23;20025;-83
2021/03/08 04:01:05;;;;;;;43.63;28.52;;;;;;;1.83;60.16;94663.03;5127853;23;20084;-84
2021/03/08 04:03:09;;;;;;;48.28;29.15;;;;;;;1.89;59.75;94660.94;5142758;23;20633;-82
2021/03/08 04:05:11;;;;;;;48.35;28.98;;;;;;;1.72;59.96;94657.78;5115695;23;20081;-85
2021/03/08 04:07:13;;;;;;;47.17;29.65;;;;;;;1.50;60.37;94653.25;5117644;23;20021;-84
2021/03/08 04:09:17;;;;;;;48.05;28.88;;;;;;;1.45;61.42;94655.34;5116320;23;20017;-84
2021/03/08 04:11:19;;;;;;;55.58;29.52;;;;;;;1.54;60.90;94657.28;5092793;23;20452;-85
2021/03/08 04:13:25;;;;;;;50.78;29.60;;;;;;;1.54;61.20;94654.72;5117605;23;20029;-82
2021/03/08 04:15:29;;;;;;;48.65;29.27;;;;;;;1.56;61.04;94657.19;5116361;23;20079;-84
2021/03/08 04:17:30;;;;;;;;;;;;;;;1.54;61.28;94659.88;5143447;23;20086;-83
2021/03/08 04:19:33;;;;;;;49.53;27.98;;;;;;;1.59;61.06;94656.97;5115922;23;19924;-85
2021/03/08 04:21:35;;;;;;;46.85;27.88;;;;;;;1.67;60.82;94656.44;5091357;23;20033;-84
2021/03/08 04:23:37;;;;;;;59.97;31.70;;;;;;;1.53;60.41;94654.84;5166320;23;20099;-84
2021/03/08 04:25:40;;;;;;;47.28;29.83;;;;;;;1.45;61.09;94654.53;5120117;23;20025;-85
2021/03/08 04:27:41;;;;;;;44.70;27.27;;;;;;;1.45;60.86;94651.94;5144251;23;20055;-85
2021/03/08 04:29:42;;;;;;;52.28;28.98;;;;;;;1.44;60.97;94653.69;5117600;23;20232;-84
2021/03/08 04:31:48;;;;;;;52.03;28.15;;;;;;;1.39;61.22;94650.59;5115705;23;20025;-85
2021/03/08 04:33:50;;;;;;;52.10;28.48;;;;;;;1.25;61.52;94648.13;5090875;23;20057;-84
2021/03/08 04:35:52;;;;;;;47.17;28.80;;;;;;;1.13;62.40;94650.59;5114040;23;20032;-73
2021/03/08 04:37:53;;;;;;;50.30;29.55;;;;;;;1.13;62.59;94657.53;5112797;23;20527;-70
2021/03/08 04:39:54;;;;;;;56.45;29.77;;;;;;;1.09;62.65;94649.16;5114022;23;20017;-71
2021/03/08 04:41:56;;;;;;;48.05;27.80;;;;;;;1.09;62.54;94650.91;5138205;23;20024;-71
2021/03/08 04:43:58;;;;;;;54.08;31.48;;;;;;;1.18;62.52;94661.47;5139091;23;20033;-71
2021/03/08 04:45:59;;;;;;;57.53;32.28;;;;;;;1.24;62.17;94662.78;5111609;23;20021;-71
2021/03/08 04:48:04;;;;;;;54.58;32.95;;;;;;;1.24;62.16;94652.47;5112203;23;20029;-70
2021/03/08 04:50:07;;;;;;;54.17;33.08;;;;;;;1.31;61.87;94665.78;5139738;23;20328;-72
2021/03/08 04:52:08;;;;;;;59.50;33.40;;;;;;;1.42;61.56;94671.88;5138209;23;20021;-71
2021/03/08 04:54:09;;;;;;;53.97;33.38;;;;;;;1.43;61.69;94665.78;5112962;23;20025;-71
2021/03/08 04:56:12;;;;;;;53.70;33.15;;;;;;;1.50;61.40;94661.00;5113216;23;20032;-71
2021/03/08 04:58:13;;;;;;;51.38;32.72;;;;;;;1.55;60.81;94661.53;5112503;23;20071;-71
2021/03/08 05:00:17;;;;;;;53.33;31.75;;;;;;;1.53;61.07;94657.41;5138808;23;20021;-71
2021/03/08 05:02:21;;;;;;;57.72;31.50;;;;;;;1.58;60.91;94665.66;5111205;23;20035;-71
2021/03/08 05:04:22;;;;;;;53.65;30.45;;;;;;;1.65;60.74;94664.28;5112088;23;20021;-71
2021/03/08 05:06:26;;;;;;;53.17;31.85;;;;;;;1.61;60.99;94668.00;5113060;23;20021;-71
2021/03/08 05:08:28;;;;;;;46.33;28.92;;;;;;;1.60;61.09;94666.38;5139071;23;20021;-71
2021/03/08 05:10:30;;;;;;;43.90;26.42;;;;;;;1.56;60.93;94672.69;5088542;23;20078;-71
2021/03/08 05:12:35;;;;;;;43.05;27.50;;;;;;;1.56;60.71;94672.69;5111805;23;20032;-70
2021/03/08 05:14:38;;;;;;;49.17;29.08;;;;;;;1.25;60.77;94671.34;5112793;23;20025;-71
2021/03/08 05:16:42;;;;;;;49.70;28.03;;;;;;;1.22;62.10;94660.31;5110738;23;20448;-71
2021/03/08 05:18:45;;;;;;;42.63;27.58;;;;;;;1.28;61.80;94668.56;5113015;23;20240;-71
2021/03/08 05:20:47;;;;;;;52.83;29.40;;;;;;;1.37;61.17;94667.94;5088073;23;20022;-72
2021/03/08 05:22:49;;;;;;;42.45;25.95;;;;;;;1.28;61.40;94660.84;5088499;23;20032;-69
2021/03/08 05:24:51;;;;;;;46.10;28.17;;;;;;;1.29;61.42;94660.75;5139538;23;20031;-71
2021/03/08 05:26:53;;;;;;;43.17;27.52;;;;;;;1.42;61.56;94655.56;5113065;23;20056;-72
2021/03/08 05:28:55;;;;;;;44.72;27.08;;;;;;;1.52;61.00;94648.00;5111962;23;20031;-70
2021/03/08 05:30:59;;;;;;;42.78;27.70;;;;;;;1.48;61.16;94642.22;5138013;23;20024;-71
2021/03/08 05:33:06;;;;;;;44.08;28.15;;;;;;;1.47;61.35;94650.91;5112337;23;20132;-71
2021/03/08 05:35:09;;;;;;;47.10;27.60;;;;;;;1.52;61.54;94655.75;5087994;23;20397;-71
2021/03/08 05:37:12;;;;;;;47.05;28.20;;;;;;;1.63;61.07;94648.94;5112698;23;20113;-71
2021/03/08 05:39:16;;;;;;;47.75;29.80;;;;;;;1.70;61.01;94645.91;5113045;23;20517;-71
2021/03/08 05:41:35;;;;;;;53.85;30.88;;;;;;;1.78;60.73;94653.94;5112148;23;20031;-70
2021/03/08 05:43:36;;;;;;;51.97;29.70;;;;;;;1.81;60.23;94657.16;5139800;23;20030;-71
2021/03/08 05:45:45;;;;;;;65.60;33.03;;;;;;;1.89;60.14;94656.59;5085909;23;20076;-70
2021/03/08 05:48:24;;;;;;;58.67;33.17;;;;;;;2.00;59.95;94668.75;5112150;23;20025;-70
2021/03/08 05:50:47;;;;;;;64.50;35.83;;;;;;;2.14;59.46;94663.44;5144994;23;20020;-86
2021/03/08 05:53:17;;;;;;;63.00;36.88;;;;;;;2.12;59.40;94665.31;5144132;23;20381;-87
2021/03/08 05:55:39;;;;;;;71.13;38.65;;;;;;;2.18;59.27;94674.41;5144369;23;20035;-85
2021/03/08 05:58:18;;;;;;;65.93;35.97;;;;;;;2.17;59.04;94670.16;5117951;23;20025;-88
2021/03/08 06:00:28;;;;;;;63.40;36.28;;;;;;;2.30;58.92;94667.53;5143882;23;20017;-86
2021/03/08 06:02:53;;;;;;;63.63;35.50;;;;;;;2.35;58.83;94668.03;5093326;23;20025;-86
2021/03/08 06:05:19;;;;;;;69.63;39.15;;;;;;;2.43;58.73;94663.13;5144222;23;20021;-88
2021/03/08 06:07:35;;;;;;;68.30;38.47;;;;;;;2.51;58.04;94667.75;5119603;23;20056;-86
2021/03/08 06:09:55;;;;;;;69.57;38.95;;;;;;;2.60;58.07;94664.50;5144386;23;20016;-87
2021/03/08 06:12:04;;;;;;;68.07;38.88;;;;;;;2.67;57.76;94670.88;5118372;23;20021;-88
2021/03/08 06:14:07;;;;;;;62.47;37.72;;;;;;;2.76;57.03;94672.78;5119666;23;20022;-88
2021/03/08 06:16:11;;;;;;;70.43;37.75;;;;;;;2.81;56.83;94672.44;5117370;23;20100;-85
2021/03/08 06:18:12;;;;;;;;;;;;;;;2.90;58.29;94676.13;5119908;23;20021;-85
2021/03/08 06:20:15;;;;;;;109.05;57.75;;;;;;;3.01;58.21;94674.41;5118214;23;19962;-88
2021/03/08 06:22:16;;;;;;;88.38;49.88;;;;;;;3.06;57.18;94684.41;5144204;23;20393;-87
2021/03/08 06:24:17;;;;;;;69.10;38.75;;;;;;;2.90;56.73;94686.47;5145442;23;20025;-86
2021/03/08 06:26:19;;;;;;;65.75;37.13;;;;;;;2.83;56.43;94681.75;5112994;23;20029;-72
2021/03/08 06:28:21;;;;;;;65.65;37.30;;;;;;;2.81;56.95;94673.25;5139664;23;20025;-73
2021/03/08 06:30:24;;;;;;;68.32;37.72;;;;;;;2.90;56.56;94684.69;5086845;23;20437;-71
2021/03/08 06:32:25;;;;;;;61.90;37.15;;;;;;;3.03;56.47;94672.53;5138043;23;20449;-71
2021/03/08 06:34:26;;;;;;;66.22;36.88;;;;;;;3.07;55.94;94671.34;5114217;23;20091;-72
2021/03/08 06:36:28;;;;;;;62.63;37.55;;;;;;;3.15;56.00;94675.97;5088079;23;20122;-73
2021/03/08 06:38:50;;;;;;;64.50;37.50;;;;;;;2.98;56.04;94674.63;5063926;23;20379;-71
2021/03/08 06:41:00;;;;;;;56.38;36.53;;;;;;;3.08;55.77;94672.19;5062904;23;20029;-72
2021/03/08 06:43:01;;;;;;;57.28;34.47;;;;;;;3.20;55.64;94673.84;5094395;23;20030;-86
2021/03/08 06:45:06;;;;;;;61.90;36.38;;;;;;;3.26;55.39;94668.19;5097994;23;20026;-91
2021/03/08 06:47:08;;;;;;;65.93;36.38;;;;;;;3.35;55.15;94665.88;5120179;23;20025;-73
2021/03/08 06:49:10;;;;;;;58.65;36.10;;;;;;;3.10;55.26;94672.91;5089062;23;20192;-72
2021/03/08 06:51:18;;;;;;;62.22;36.20;;;;;;;2.96;56.00;94676.50;5089087;23;20064;-71
2021/03/08 06:53:29;;;;;;;75.00;42.40;;;;;;;3.14;56.04;94674.31;5115030;23;20027;-70
2021/03/08 06:55:31;;;;;;;58.53;34.35;;;;;;;2.93;56.17;94684.50;5089413;23;20025;-73
2021/03/08 06:57:35;;;;;;;60.40;34.85;;;;;;;2.90;56.24;94674.34;5115279;23;20029;-71
2021/03/08 06:59:54;;;;;;;60.60;33.97;;;;;;;3.06;56.45;94681.81;5116230;23;20017;-72
2021/03/08 07:01:56;;;;;;;59.97;33.40;;;;;;;3.30;55.69;94662.81;5086240;23;20076;-71
2021/03/08 07:03:59;;;;;;;55.13;33.47;;;;;;;3.49;55.59;94674.25;5115870;23;20036;-70
2021/03/08 07:06:15;;;;;;;55.05;32.92;;;;;;;3.48;55.57;94677.78;5089434;23;20649;-72
2021/03/08 07:08:22;;;;;;;60.35;34.85;;;;;;;3.68;55.40;94672.84;5115613;23;20653;-74
2021/03/08 07:10:55;;;;;;;53.30;32.80;;;;;;;3.84;54.22;94672.47;5115644;23;20390;-72
2021/03/08 07:13:01;;;;;;;53.53;35.33;;;;;;;4.00;53.60;94677.28;5101967;23;20044;-71
2021/03/08 07:15:22;;;;;;;53.10;33.63;;;;;;;4.00;53.27;94670.34;5088634;23;20104;-71
2021/03/08 07:17:36;;;;;;;60.17;32.60;;;;;;;3.83;53.33;94676.00;5063584;23;20022;-71
2021/03/08 07:19:55;;;;;;;53.72;31.55;;;;;;;3.83;53.23;94673.41;5088125;23;20269;-71
2021/03/08 07:21:57;;;;;;;45.83;30.73;;;;;;;3.86;53.61;94676.59;5088149;23;20068;-71
2021/03/08 07:24:12;;;;;;;45.20;27.50;;;;;;;3.95;53.07;94674.22;5115220;23;20275;-71
2021/03/08 07:26:21;;;;;;;45.90;28.75;;;;;;;3.77;53.98;94671.31;5114599;23;20224;-71
2021/03/08 07:28:22;;;;;;;77.68;47.00;;;;;;;3.97;53.73;94667.16;5089064;23;20033;-72
2021/03/08 07:30:27;;;;;;;52.42;32.00;;;;;;;4.14;52.99;94671.84;5114140;23;20076;-73
2021/03/08 07:32:29;;;;;;;51.88;32.35;;;;;;;4.19;53.14;94674.91;5063209;23;20420;-75
2021/03/08 07:34:44;;;;;;;53.75;32.55;;;;;;;4.03;52.79;94672.69;5113707;23;20429;-73
2021/03/08 07:37:04;;;;;;;58.67;33.92;;;;;;;3.73;53.41;94675.09;5113608;23;20043;-71
2021/03/08 07:39:14;;;;;;;52.58;34.55;;;;;;;3.83;53.71;94661.28;5140190;23;20029;-72
2021/03/08 07:41:21;;;;;;;55.38;32.95;;;;;;;3.99;53.76;94671.28;5113611;23;20105;-71
2021/03/08 07:43:23;;;;;;;53.80;32.63;;;;;;;4.19;53.52;94666.31;5139335;23;20025;-72
2021/03/08 07:45:42;;;;;;;53.50;31.95;;;;;;;4.44;52.82;94663.41;5138398;23;20627;-71
2021/03/08 07:47:43;;;;;;;50.78;30.70;;;;;;;4.56;52.22;94658.19;5137207;23;20052;-72
2021/03/08 07:49:45;;;;;;;46.47;30.48;;;;;;;4.64;51.51;94653.19;5113712;23;20021;-74
2021/03/08 07:52:06;;;;;;;52.65;31.65;;;;;;;4.60;51.86;94662.19;5113074;23;20382;-72
2021/03/08 07:54:09;;;;;;;50.28;31.23;;;;;;;4.59;51.77;94650.97;5113126;23;20029;-72
2021/03/08 07:56:10;;;;;;;46.55;30.13;;;;;;;4.70;51.70;94657.91;5113730;23;20494;-72
2021/03/08 07:58:12;;;;;;;48.25;30.23;;;;;;;4.67;51.72;94652.97;5139939;23;20036;-72
2021/03/08 08:00:13;;;;;;;51.35;31.25;;;;;;;4.65;52.33;94649.66;5112467;23;20017;-71
2021/03/08 08:02:15;;;;;;;48.17;30.80;;;;;;;4.67;52.01;94640.81;5111582;23;20024;-73
2021/03/08 08:04:33;;;;;;;48.50;30.40;;;;;;;4.81;51.79;94637.06;5116164;23;20021;-70
2021/03/08 08:06:36;;;;;;;48.97;29.70;;;;;;;4.99;51.70;94637.34;5139118;23;20025;-71
2021/03/08 08:08:42;;;;;;;49.60;31.15;;;;;;;4.98;50.95;94642.66;5139645;23;20028;-73
2021/03/08 08:10:43;;;;;;;52.35;31.27;;;;;;;5.05;51.01;94636.00;5139829;23;20016;-73
2021/03/08 08:12:47;;;;;;;50.10;30.83;;;;;;;5.18;50.73;94634.03;5111856;23;20063;-73
2021/03/08 08:14:50;;;;;;;48.97;28.77;;;;;;;4.98;51.43;94638.28;5113227;23;20028;-71
2021/03/08 08:16:52;;;;;;;48.95;30.73;;;;;;;4.76;51.33;94644.44;5111187;23;20056;-72
2021/03/08 08:19:00;;;;;;;49.80;30.70;;;;;;;5.02;51.53;94633.69;5112629;23;20394;-72
2021/03/08 08:21:02;;;;;;;56.95;30.25;;;;;;;5.21;51.02;94644.19;5139571;23;20020;-71
2021/03/08 08:23:03;;;;;;;48.17;31.77;;;;;;;5.21;50.56;94633.81;5112666;23;20025;-73
2021/03/08 08:25:06;;;;;;;49.35;30.58;;;;;;;5.37;50.13;94632.50;5112307;23;20021;-73
2021/03/08 08:27:09;;;;;;;51.50;31.33;;;;;;;4.77;51.03;94634.88;5113330;23;20091;-73
2021/03/08 08:29:14;;;;;;;;;;;;;;;4.80;51.26;94632.84;5088016;23;20049;-73
2021/03/08 08:31:17;;;;;;;51.83;31.35;;;;;;;4.95;51.12;94635.13;5087086;23;20582;-72
2021/03/08 08:33:27;;;;;;;53.65;32.33;;;;;;;5.19;51.39;94629.69;5138450;23;20056;-72
2021/03/08 08:35:34;;;;;;;55.67;33.08;;;;;;;5.48;50.78;94624.63;5139769;23;20510;-74
2021/03/08 08:37:36;;;;;;;46.35;31.02;;;;;;;5.48;49.70;94619.44;5112602;23;20052;-71
2021/03/08 08:39:44;;;;;;;50.17;32.58;;;;;;;4.74;51.40;94622.16;5137594;23;20075;-72
2021/03/08 08:41:48;;;;;;;55.88;32.90;;;;;;;4.40;53.22;94619.69;5088522;23;20025;-72
2021/03/08 08:44:08;;;;;;;49.15;33.28;;;;;;;4.54;52.31;94615.97;5138768;23;20139;-72
2021/03/08 08:46:26;;;;;;;53.15;30.92;;;;;;;4.73;52.05;94616.13;5137633;23;20108;-72
2021/03/08 08:48:29;;;;;;;49.65;31.52;;;;;;;5.06;51.48;94616.91;5089009;23;20291;-71
2021/03/08 08:50:47;;;;;;;49.47;31.83;;;;;;;5.50;50.63;94609.72;5113804;23;20338;-72
2021/03/08 08:52:52;;;;;;;48.60;30.27;;;;;;;5.43;50.45;94619.00;5112301;23;20091;-75
2021/03/08 08:54:54;;;;;;;49.28;29.85;;;;;;;5.48;49.91;94620.25;5112847;23;20025;-74
2021/03/08 08:57:09;;;;;;;53.10;30.10;;;;;;;5.78;49.57;94620.38;5137511;23;20086;-72
2021/03/08 08:59:16;;;;;;;;;;;;;;;5.75;49.62;94609.28;5113120;23;20084;-72
2021/03/08 09:04:00;;;;;;;51.28;32.10;;;;;;;5.70;49.74;94603.66;5099812;23;20443;-72
2021/03/08 09:06:02;;;;;;;51.88;30.77;;;;;;;6.13;49.19;94599.13;5139033;23;20029;-72
2021/03/08 09:08:25;;;;;;;43.03;29.55;;;;;;;6.62;48.20;94604.38;5138468;23;20024;-75
2021/03/08 09:10:37;;;;;;;45.47;31.25;;;;;;;6.85;47.31;94595.34;5112933;23;20017;-72
2021/03/08 09:12:40;;;;;;;56.20;35.53;;;;;;;7.00;46.63;94585.31;5137438;23;20034;-72
2021/03/08 09:14:47;;;;;;;52.50;30.08;;;;;;;6.53;47.31;94588.63;5111111;23;20028;-73
2021/03/08 09:16:50;;;;;;;52.55;31.35;;;;;;;6.64;47.43;94590.28;5110298;23;20035;-72
2021/03/08 09:19:21;;;;;;;55.63;30.65;;;;;;;7.07;47.15;94588.19;5138609;23;20028;-70
2021/03/08 09:21:22;;;;;;;49.58;30.52;;;;;;;7.03;46.01;94592.03;5111588;23;20052;-72
2021/03/08 09:23:29;;;;;;;54.03;30.20;;;;;;;6.88;46.98;94573.41;5137984;23;20028;-73
2021/03/08 09:25:39;;;;;;;49.35;30.60;;;;;;;7.11;46.65;94572.13;5088667;23;20362;-73
2021/03/08 09:27:44;;;;;;;49.45;31.90;;;;;;;7.15;46.32;94575.28;5139952;23;20382;-86
2021/03/08 09:29:47;;;;;;;45.78;30.40;;;;;;;7.18;46.09;94565.41;5146698;23;20048;-86
2021/03/08 09:31:55;;;;;;;52.05;31.60;;;;;;;7.48;45.49;94570.50;5145966;23;20055;-87
2021/03/08 09:33:56;;;;;;;45.63;30.58;;;;;;;7.28;45.67;94574.97;5146390;23;20034;-88
2021/03/08 09:35:59;;;;;;;54.28;33.47;;;;;;;7.18;45.84;94569.78;5119936;23;20025;-86
2021/03/08 09:38:03;;;;;;;50.45;31.38;;;;;;;7.05;46.11;94559.66;5119256;23;20099;-88
2021/03/08 09:40:05;;;;;;;50.00;33.83;;;;;;;6.97;46.69;94565.59;5121682;23;20021;-86
2021/03/08 09:42:07;;;;;;;52.72;33.75;;;;;;;7.03;47.13;94561.56;5095641;23;20029;-87
2021/03/08 09:44:08;;;;;;;65.07;34.20;;;;;;;7.27;46.25;94560.28;5094875;23;20112;-86
2021/03/08 09:46:10;;;;;;;57.90;33.25;;;;;;;7.58;45.67;94555.66;5145231;23;20052;-86
2021/03/08 09:48:13;;;;;;;46.65;32.83;;;;;;;7.76;45.25;94556.50;5145170;23;20025;-88